EDDR 200050Z AUTO 08004KT CAVOK 17/16 Q1021 EDDR 200020Z AUTO 08004KT 040V100 CAVOK 17/16 Q1021 EDDR 192350Z AUTO 06005KT 030V090 CAVOK 17/16 Q1022 EDDR 192320Z AUTO 08004KT CAVOK 18/16 Q1021 EDDR 192250Z AUTO 07003KT CAVOK 18/16 Q1021 EDDR 192220Z AUTO 09003KT CAVOK 18/16 Q1021 EDDR 192150Z AUTO VRB02KT CAVOK 18/16 Q1022 EDDR 192120Z AUTO 09004KT CAVOK 18/17 Q1022 EDDR 192050Z AUTO 07004KT 9999 FEW048 18/17 Q1021 EDDR 192020Z AUTO 04004KT 360V070 9999 VCSH SCT036 FEW///TCU 19/18 Q1021 RESHRA NOSIG EDDR 191950Z AUTO 08006KT 050V120 9999 SHRA VCTS SCT034 BKN048 FEW///CB 19/17 Q1021 RETS BECMG NSW EDDR 191920Z AUTO VRB04KT 9999 +TSGRRA FEW021 BKN048 BKN///CB 20/17 Q1021 BECMG NSW EDDR 191850Z AUTO 05006KT 360V080 9999 TSRA SCT041 SCT///CB 23/16 Q1020 BECMG NSW EDDR 191820Z AUTO 23009KT 9999 -SHRA VCTS FEW///CB 26/16 Q1020 TEMPO TSRA EDDR 191750Z AUTO 24009KT 210V270 CAVOK 26/17 Q1019 EDDR 191720Z AUTO 22008KT CAVOK 27/17 Q1019 TEMPO 24015G25KT TSRA EDDR 191650Z AUTO 24010KT 200V260 CAVOK 27/16 Q1020 TEMPO 24015G25KT TSRA EDDR 191620Z AUTO 24011KT 210V270 CAVOK 26/16 Q1020 EDDR 191550Z AUTO 23008KT 9999 -SHRA FEW///TCU 27/17 Q1019 NOSIG EDDR 191520Z AUTO 23009KT 200V260 CAVOK 25/16 Q1019 TEMPO SHRA EDDR 191450Z AUTO 23011KT 9999 -SHRA VCTS FEW047 FEW///CB 26/16 Q1019 TEMPO 24015G25KT TSRA EDDR 191420Z AUTO 22014KT 190V250 9999 FEW046 27/16 Q1019 TEMPO 24015G25KT TSRA EDDR 191350Z AUTO 22012KT 180V250 9999 FEW045 28/16 Q1019 TEMPO TSRA EDDR 191320Z AUTO 25012KT 9999 FEW045 28/16 Q1020 TEMPO TSRA EDDR 191250Z AUTO 22011KT 190V260 CAVOK 28/16 Q1020 EDDR 191220Z AUTO 24010KT 180V270 CAVOK 27/16 Q1020 NOSIG EDDR 191150Z AUTO 25010KT 220V290 CAVOK 26/16 Q1020 NOSIG EDDR 191120Z AUTO 23011KT 200V260 CAVOK 26/16 Q1020 NOSIG EDDR 191050Z AUTO 22012KT CAVOK 25/15 Q1020 NOSIG EDDR 191020Z AUTO 20009KT 150V270 CAVOK 25/15 Q1020 EDDR 190950Z AUTO 23009KT 200V260 9999 -SHRA FEW027 FEW///CB 23/15 Q1020 RESHRA NOSIG EDDR 190920Z AUTO 24009KT 210V280 9999 VCSH FEW///CB 24/14 Q1020 TEMPO SHRA BKN050CB EDDR 190850Z AUTO 22012KT 190V260 CAVOK 24/14 Q1020 TEMPO SHRA SCT050CB EDDR 190820Z AUTO 21010KT CAVOK 24/14 Q1020 NOSIG EDDR 190750Z AUTO 21009KT 150V240 CAVOK 23/14 Q1020 NOSIG EDDR 190720Z AUTO 18007KT 150V210 CAVOK 22/12 Q1020 NOSIG EDDR 190650Z AUTO 10003KT 060V120 CAVOK 22/13 Q1020 NOSIG EDDR 190620Z AUTO 10004KT CAVOK 20/13 Q1020 NOSIG EDDR 190550Z AUTO 10004KT CAVOK 19/12 Q1020 NOSIG EDDR 190520Z AUTO 08003KT CAVOK 18/12 Q1020 NOSIG EDDR 190450Z AUTO 07004KT CAVOK 17/12 Q1019 NOSIG EDDR 190420Z AUTO 06005KT 020V080 CAVOK 15/11 Q1019 NOSIG EDDR 190350Z AUTO 09003KT 050V120 CAVOK 15/11 Q1019 NOSIG EDDR 190320Z AUTO 08005KT CAVOK 15/11 Q1019 EDDR 190250Z AUTO 06005KT CAVOK 16/11 Q1019 EDDR 190220Z AUTO 09006KT CAVOK 16/11 Q1019 EDDR 190150Z AUTO 08007KT CAVOK 17/11 Q1019 EDDR 190120Z AUTO 07006KT CAVOK 17/11 Q1019 EDDR 190050Z AUTO 06005KT CAVOK 17/11 Q1019 EDDR 190020Z AUTO 07006KT CAVOK 17/11 Q1019 EDDR 182350Z AUTO 08005KT CAVOK 17/11 Q1020 EDDR 182320Z AUTO 08006KT CAVOK 17/11 Q1020 EDDR 182250Z AUTO 08005KT CAVOK 18/11 Q1020 EDDR 182220Z AUTO 08006KT CAVOK 18/11 Q1020 EDDR 182150Z AUTO 08006KT CAVOK 19/10 Q1020 EDDR 182120Z AUTO 08007KT CAVOK 20/10 Q1020 EDDR 182050Z AUTO 08007KT CAVOK 20/11 Q1020 EDDR 182020Z AUTO 07006KT CAVOK 21/11 Q1020 NOSIG EDDR 181950Z AUTO 08005KT CAVOK 21/11 Q1020 NOSIG EDDR 181920Z AUTO 09006KT CAVOK 22/12 Q1020 NOSIG EDDR 181850Z AUTO 08005KT CAVOK 22/12 Q1020 NOSIG EDDR 181820Z AUTO 10005KT CAVOK 24/12 Q1020 NOSIG EDDR 181750Z AUTO 10004KT CAVOK 26/11 Q1020 NOSIG EDDR 181720Z AUTO 11004KT CAVOK 27/10 Q1020 NOSIG EDDR 181650Z AUTO 12005KT CAVOK 27/10 Q1020 NOSIG EDDR 181620Z AUTO 12005KT 090V160 CAVOK 28/09 Q1020 NOSIG EDDR 181550Z AUTO 14005KT 090V200 CAVOK 28/08 Q1020 EDDR 181520Z AUTO 17006KT 130V220 CAVOK 29/09 Q1020 NOSIG EDDR 181450Z AUTO 16005KT 090V200 CAVOK 29/11 Q1020 NOSIG EDDR 181420Z AUTO 10007KT 050V130 CAVOK 28/11 Q1021 NOSIG EDDR 181350Z AUTO 12005KT 050V180 CAVOK 28/10 Q1021 NOSIG EDDR 181320Z AUTO 16004KT 100V210 CAVOK 28/11 Q1021 NOSIG

METAR Messwerte "SAARBRUECKEN" EDDR

Zurück zur Übersicht

Ortsname
Ländercode / m ü. NN
Zeit Temperatur Taupunkt Rel.
Luftfeuchte
Luftdruck:
Altimeter
NN
Station
Wind in Beaufort
(Knoten)
Sichtweite
(Meter)
Wolken
(Meter über Grund)
Wettererscheinung
SAARBRUECKEN
DE 317
Fr 20.05. 02:50171694 %1021
1021
983
O 2 (4)>= 10000Nicht signifikant 
SAARBRUECKEN
DE 317
Fr 20.05. 02:20171694 %1021
1021
983
O 2 (4)
NO - O
>= 10000Nicht signifikant 
SAARBRUECKEN
DE 317
Fr 20.05. 01:50171694 %1022
1022
984
ONO 2 (5)
NNO - O
>= 10000Nicht signifikant 
SAARBRUECKEN
DE 317
Fr 20.05. 01:20181688 %1021
1021
983
O 2 (4)>= 10000Nicht signifikant 
SAARBRUECKEN
DE 317
Fr 20.05. 00:50181688 %1021
1021
983
ONO 2 (3)>= 10000Nicht signifikant 
SAARBRUECKEN
DE 317
Fr 20.05. 00:20181688 %1021
1021
983
O 2 (3)>= 10000Nicht signifikant 
SAARBRUECKEN
DE 317
Do 19.05. 23:50181688 %1022
1022
984
Uml 1 (2)>= 10000Nicht signifikant 
SAARBRUECKEN
DE 317
Do 19.05. 23:20181794 %1022
1022
984
O 2 (4)>= 10000Nicht signifikant 
SAARBRUECKEN
DE 317
Do 19.05. 22:50181794 %1021
1021
983
ONO 2 (4)>= 10000Leicht bewölkt (1500) 
SAARBRUECKEN
DE 317
Do 19.05. 22:20191894 %1021
1021
983
NO 2 (4)
N - ONO
>= 10000Wolkig (1100) 
SAARBRUECKEN
DE 317
Do 19.05. 21:50191788 %1021
1021
983
O 2 (6)
NO - OSO
>= 10000Stark bewölkt (1500)
Wolkig (1000)
Regen-Schauer
SAARBRUECKEN
DE 317
Do 19.05. 21:20201783 %1021
1020
983
Uml 2 (4)>= 10000Stark bewölkt (1500)
Leicht bewölkt (640)
Gewitter mit Hagel/Regen (stark)
SAARBRUECKEN
DE 317
Do 19.05. 20:50231665 %1020
1019
982
NO 2 (6)
N - O
>= 10000Wolkig (1200)Gewitter mit Regen
SAARBRUECKEN
DE 317
Do 19.05. 20:20261654 %1020
1019
982
SW 3 (9)>= 10000 Regen-Schauer (schwach)
Bald zeitweise: Gewitter mit Regen
SAARBRUECKEN
DE 317
Do 19.05. 19:50261758 %1019
1018
981
WSW 3 (9)
SSW - W
>= 10000Nicht signifikant 
SAARBRUECKEN
DE 317
Do 19.05. 19:20271754 %1019
1018
981
SW 3 (8)
Bald zeitweise:
WSW 4 (15) - 6 (25)
>= 10000Nicht signifikant Bald zeitweise: Gewitter mit Regen
SAARBRUECKEN
DE 317
Do 19.05. 18:50271651 %1020
1019
982
WSW 3 (10)
SSW - W
Bald zeitweise:
WSW 4 (15) - 6 (25)
>= 10000Nicht signifikant Bald zeitweise: Gewitter mit Regen
SAARBRUECKEN
DE 317
Do 19.05. 18:20261654 %1020
1019
982
WSW 4 (11)
SSW - W
>= 10000Nicht signifikant 
SAARBRUECKEN
DE 317
Do 19.05. 17:50271754 %1019
1018
981
SW 3 (8)>= 10000 Regen-Schauer (schwach)
SAARBRUECKEN
DE 317
Do 19.05. 17:20251657 %1019
1018
981
SW 3 (9)
SSW - W
>= 10000Nicht signifikant Bald zeitweise: Regen-Schauer
SAARBRUECKEN
DE 317
Do 19.05. 16:50261654 %1019
1018
981
SW 4 (11)
Bald zeitweise:
WSW 4 (15) - 6 (25)
>= 10000Leicht bewölkt (1400)Regen-Schauer (schwach)
Bald zeitweise: Gewitter mit Regen
SAARBRUECKEN
DE 317
Do 19.05. 16:20271651 %1019
1018
981
SW 4 (14)
S - WSW
Bald zeitweise:
WSW 4 (15) - 6 (25)
>= 10000Leicht bewölkt (1400) Bald zeitweise: Gewitter mit Regen
SAARBRUECKEN
DE 317
Do 19.05. 15:50281648 %1019
1017
981
SW 4 (12)
S - WSW
>= 10000Leicht bewölkt (1400) Bald zeitweise: Gewitter mit Regen
SAARBRUECKEN
DE 317
Do 19.05. 15:20281648 %1020
1018
982
WSW 4 (12)>= 10000Leicht bewölkt (1400) Bald zeitweise: Gewitter mit Regen
SAARBRUECKEN
DE 317
Do 19.05. 14:50281648 %1020
1018
982
SW 4 (11)
S - W
>= 10000Nicht signifikant 
SAARBRUECKEN
DE 317
Do 19.05. 14:20271651 %1020
1019
982
WSW 3 (10)
S - W
>= 10000Nicht signifikant 
SAARBRUECKEN
DE 317
Do 19.05. 13:50261654 %1020
1019
982
WSW 3 (10)
SW - WNW
>= 10000Nicht signifikant 
SAARBRUECKEN
DE 317
Do 19.05. 13:20261654 %1020
1019
982
SW 4 (11)
SSW - W
>= 10000Nicht signifikant 
SAARBRUECKEN
DE 317
Do 19.05. 12:50251554 %1020
1019
982
SW 4 (12)>= 10000Nicht signifikant 
SAARBRUECKEN
DE 317
Do 19.05. 12:20251554 %1020
1019
982
SSW 3 (9)
SSO - W
>= 10000Nicht signifikant 
SAARBRUECKEN
DE 317
Do 19.05. 11:50231561 %1020
1019
982
SW 3 (9)
SSW - W
>= 10000Leicht bewölkt (820)Regen-Schauer (schwach)
SAARBRUECKEN
DE 317
Do 19.05. 11:20241454 %1020
1019
982
WSW 3 (9)
SSW - W
>= 10000  Bald zeitweise: Regen-Schauer
SAARBRUECKEN
DE 317
Do 19.05. 10:50241454 %1020
1019
982
SW 4 (12)
S - W
>= 10000Nicht signifikant Bald zeitweise: Regen-Schauer
SAARBRUECKEN
DE 317
Do 19.05. 10:20241454 %1020
1019
982
SSW 3 (10)>= 10000Nicht signifikant 
SAARBRUECKEN
DE 317
Do 19.05. 09:50231457 %1020
1019
982
SSW 3 (9)
SSO - WSW
>= 10000Nicht signifikant 
SAARBRUECKEN
DE 317
Do 19.05. 09:20221253 %1020
1019
982
S 3 (7)
SSO - SSW
>= 10000Nicht signifikant 
SAARBRUECKEN
DE 317
Do 19.05. 08:50221357 %1020
1019
982
O 2 (3)
ONO - OSO
>= 10000Nicht signifikant 
SAARBRUECKEN
DE 317
Do 19.05. 08:20201364 %1020
1019
982
O 2 (4)>= 10000Nicht signifikant 
SAARBRUECKEN
DE 317
Do 19.05. 07:50191264 %1020
1020
982
O 2 (4)>= 10000Nicht signifikant 
SAARBRUECKEN
DE 317
Do 19.05. 07:20181268 %1020
1020
982
O 2 (3)>= 10000Nicht signifikant 
SAARBRUECKEN
DE 317
Do 19.05. 06:50171272 %1019
1019
981
ONO 2 (4)>= 10000Nicht signifikant 
SAARBRUECKEN
DE 317
Do 19.05. 06:20151177 %1019
1019
981
ONO 2 (5)
NNO - O
>= 10000Nicht signifikant 
SAARBRUECKEN
DE 317
Do 19.05. 05:50151177 %1019
1019
981
O 2 (3)
NO - OSO
>= 10000Nicht signifikant 
SAARBRUECKEN
DE 317
Do 19.05. 05:20151177 %1019
1019
981
O 2 (5)>= 10000Nicht signifikant 
SAARBRUECKEN
DE 317
Do 19.05. 04:50161172 %1019
1019
981
ONO 2 (5)>= 10000Nicht signifikant 
SAARBRUECKEN
DE 317
Do 19.05. 04:20161172 %1019
1019
981
O 2 (6)>= 10000Nicht signifikant 
SAARBRUECKEN
DE 317
Do 19.05. 03:50171168 %1019
1019
981
O 3 (7)>= 10000Nicht signifikant 
SAARBRUECKEN
DE 317
Do 19.05. 03:20171168 %1019
1019
981
ONO 2 (6)>= 10000Nicht signifikant 
SAARBRUECKEN
DE 317
Do 19.05. 02:50171168 %1019
1019
981
ONO 2 (5)>= 10000Nicht signifikant 
SAARBRUECKEN
DE 317
Do 19.05. 02:20171168 %1019
1019
981
ONO 2 (6)>= 10000Nicht signifikant 
SAARBRUECKEN
DE 317
Do 19.05. 01:50171168 %1020
1020
982
O 2 (5)>= 10000Nicht signifikant 
SAARBRUECKEN
DE 317
Do 19.05. 01:20171168 %1020
1020
982
O 2 (6)>= 10000Nicht signifikant 
SAARBRUECKEN
DE 317
Do 19.05. 00:50181164 %1020
1020
982
O 2 (5)>= 10000Nicht signifikant 
SAARBRUECKEN
DE 317
Do 19.05. 00:20181164 %1020
1020
982
O 2 (6)>= 10000Nicht signifikant 
SAARBRUECKEN
DE 317
Mi 18.05. 23:50191056 %1020
1020
982
O 2 (6)>= 10000Nicht signifikant 
SAARBRUECKEN
DE 317
Mi 18.05. 23:20201053 %1020
1019
982
O 3 (7)>= 10000Nicht signifikant 
SAARBRUECKEN
DE 317
Mi 18.05. 22:50201156 %1020
1019
982
O 3 (7)>= 10000Nicht signifikant 
SAARBRUECKEN
DE 317
Mi 18.05. 22:20211153 %1020
1019
982
ONO 2 (6)>= 10000Nicht signifikant 
SAARBRUECKEN
DE 317
Mi 18.05. 21:50211153 %1020
1019
982
O 2 (5)>= 10000Nicht signifikant 
SAARBRUECKEN
DE 317
Mi 18.05. 21:20221253 %1020
1019
982
O 2 (6)>= 10000Nicht signifikant 
SAARBRUECKEN
DE 317
Mi 18.05. 20:50221253 %1020
1019
982
O 2 (5)>= 10000Nicht signifikant 
SAARBRUECKEN
DE 317
Mi 18.05. 20:20241247 %1020
1019
982
O 2 (5)>= 10000Nicht signifikant 
SAARBRUECKEN
DE 317
Mi 18.05. 19:50261139 %1020
1019
982
O 2 (4)>= 10000Nicht signifikant 
SAARBRUECKEN
DE 317
Mi 18.05. 19:20271034 %1020
1019
982
OSO 2 (4)>= 10000Nicht signifikant 
SAARBRUECKEN
DE 317
Mi 18.05. 18:50271034 %1020
1019
982
OSO 2 (5)>= 10000Nicht signifikant 
SAARBRUECKEN
DE 317
Mi 18.05. 18:2028930 %1020
1018
982
OSO 2 (5)
O - SSO
>= 10000Nicht signifikant 
SAARBRUECKEN
DE 317
Mi 18.05. 17:5028828 %1020
1018
982
SO 2 (5)
O - SSW
>= 10000Nicht signifikant 
SAARBRUECKEN
DE 317
Mi 18.05. 17:2029929 %1020
1018
982
S 2 (6)
SO - SW
>= 10000Nicht signifikant 
SAARBRUECKEN
DE 317
Mi 18.05. 16:50291133 %1020
1018
982
SSO 2 (5)
O - SSW
>= 10000Nicht signifikant 
SAARBRUECKEN
DE 317
Mi 18.05. 16:20281135 %1021
1019
983
O 3 (7)
NO - SO
>= 10000Nicht signifikant 
SAARBRUECKEN
DE 317
Mi 18.05. 15:50281032 %1021
1019
983
OSO 2 (5)
NO - S
>= 10000Nicht signifikant 
SAARBRUECKEN
DE 317
Mi 18.05. 15:20281135 %1021
1019
983
SSO 2 (4)
O - SSW
>= 10000Nicht signifikant 

Altimeter: Einstellung am Altimeter (Höhenmesser), die Höhe 0 muss auf diesen Luftdruckwert zeigen, damit das Gerät die Stationshöhe richtig anzeigt.

NN: Luftdruck reduziert auf "Normal Null", auf Meereshöhe, dieser von der Temperatur abhängige Wert wird bisweilen unkorrekt einfach als "Luftdruck" bezeichnet. Eigentlich nur eine fiktive Größe, die es erlaubt, Stationen auf unterschiedlichen Höhen miteinander zu vergleichen.

Station: Realer Luftdruck an der Station.